sensor_id;sensor_type;location;lat;lon;timestamp;temperature;humidity
24017;DHT22;12222;50.090;19.702;2022-09-14T00:02:49;14.50;99.90
24017;DHT22;12222;50.090;19.702;2022-09-14T00:08:12;14.50;99.90
24017;DHT22;12222;50.090;19.702;2022-09-14T00:13:35;14.40;99.90
24017;DHT22;12222;50.090;19.702;2022-09-14T00:19:01;14.30;99.90
24017;DHT22;12222;50.090;19.702;2022-09-14T00:24:28;14.20;99.90
24017;DHT22;12222;50.090;19.702;2022-09-14T00:29:53;14.10;99.90
24017;DHT22;12222;50.090;19.702;2022-09-14T00:35:16;14.00;99.90
24017;DHT22;12222;50.090;19.702;2022-09-14T00:40:38;13.80;99.90
24017;DHT22;12222;50.090;19.702;2022-09-14T00:46:00;13.70;99.90
24017;DHT22;12222;50.090;19.702;2022-09-14T00:51:23;13.60;99.90
24017;DHT22;12222;50.090;19.702;2022-09-14T00:56:47;13.50;99.90
24017;DHT22;12222;50.090;19.702;2022-09-14T01:02:11;13.60;99.90
24017;DHT22;12222;50.090;19.702;2022-09-14T01:19:04;13.40;99.90
24017;DHT22;12222;50.090;19.702;2022-09-14T01:30:07;13.50;99.90
24017;DHT22;12222;50.090;19.702;2022-09-14T01:35:46;13.50;99.90
24017;DHT22;12222;50.090;19.702;2022-09-14T01:41:14;13.60;99.90
24017;DHT22;12222;50.090;19.702;2022-09-14T01:46:47;13.60;99.90
24017;DHT22;12222;50.090;19.702;2022-09-14T01:52:24;13.50;99.90
24017;DHT22;12222;50.090;19.702;2022-09-14T01:57:56;13.40;99.90
24017;DHT22;12222;50.090;19.702;2022-09-14T02:03:25;13.40;99.90
24017;DHT22;12222;50.090;19.702;2022-09-14T02:08:49;13.30;99.90
24017;DHT22;12222;50.090;19.702;2022-09-14T02:14:12;13.30;99.90
24017;DHT22;12222;50.090;19.702;2022-09-14T02:19:40;13.30;99.90
24017;DHT22;12222;50.090;19.702;2022-09-14T02:25:04;13.30;99.90
24017;DHT22;12222;50.090;19.702;2022-09-14T02:30:26;13.30;99.90
24017;DHT22;12222;50.090;19.702;2022-09-14T02:35:54;13.30;99.90
24017;DHT22;12222;50.090;19.702;2022-09-14T02:41:39;13.30;99.90
24017;DHT22;12222;50.090;19.702;2022-09-14T02:58:19;13.30;99.90
24017;DHT22;12222;50.090;19.702;2022-09-14T03:03:41;13.30;99.90
24017;DHT22;12222;50.090;19.702;2022-09-14T03:09:03;13.10;99.90
24017;DHT22;12222;50.090;19.702;2022-09-14T03:14:25;13.10;99.90
24017;DHT22;12222;50.090;19.702;2022-09-14T03:19:48;13.00;99.90
24017;DHT22;12222;50.090;19.702;2022-09-14T03:25:10;12.90;99.90
24017;DHT22;12222;50.090;19.702;2022-09-14T03:30:33;12.70;99.90
24017;DHT22;12222;50.090;19.702;2022-09-14T03:35:55;12.70;99.90
24017;DHT22;12222;50.090;19.702;2022-09-14T03:41:19;12.70;99.90
24017;DHT22;12222;50.090;19.702;2022-09-14T03:46:42;12.60;99.90
24017;DHT22;12222;50.090;19.702;2022-09-14T03:52:05;12.60;99.90
24017;DHT22;12222;50.090;19.702;2022-09-14T03:57:27;12.60;99.90
24017;DHT22;12222;50.090;19.702;2022-09-14T04:02:49;12.70;99.90
24017;DHT22;12222;50.090;19.702;2022-09-14T04:08:11;12.70;99.90
24017;DHT22;12222;50.090;19.702;2022-09-14T04:13:34;12.80;99.90
24017;DHT22;12222;50.090;19.702;2022-09-14T04:18:56;12.90;99.90
24017;DHT22;12222;50.090;19.702;2022-09-14T04:24:18;12.90;99.90
24017;DHT22;12222;50.090;19.702;2022-09-14T04:29:40;12.80;99.90
24017;DHT22;12222;50.090;19.702;2022-09-14T04:35:02;12.80;99.90
24017;DHT22;12222;50.090;19.702;2022-09-14T04:40:25;12.70;99.90
24017;DHT22;12222;50.090;19.702;2022-09-14T04:45:50;12.80;99.90
24017;DHT22;12222;50.090;19.702;2022-09-14T04:51:18;12.80;99.90
24017;DHT22;12222;50.090;19.702;2022-09-14T04:56:41;12.90;99.90
24017;DHT22;12222;50.090;19.702;2022-09-14T05:02:03;13.10;99.90
24017;DHT22;12222;50.090;19.702;2022-09-14T05:07:26;13.40;99.90
24017;DHT22;12222;50.090;19.702;2022-09-14T05:12:48;13.60;99.90
24017;DHT22;12222;50.090;19.702;2022-09-14T05:18:10;13.70;99.90
24017;DHT22;12222;50.090;19.702;2022-09-14T05:23:33;13.90;99.90
24017;DHT22;12222;50.090;19.702;2022-09-14T05:28:57;13.90;99.90
24017;DHT22;12222;50.090;19.702;2022-09-14T05:34:20;14.00;99.90
24017;DHT22;12222;50.090;19.702;2022-09-14T05:39:42;14.10;99.90
24017;DHT22;12222;50.090;19.702;2022-09-14T05:45:04;14.10;99.90
24017;DHT22;12222;50.090;19.702;2022-09-14T05:50:27;14.30;99.90
24017;DHT22;12222;50.090;19.702;2022-09-14T05:56:08;14.50;99.90
24017;DHT22;12222;50.090;19.702;2022-09-14T06:01:31;14.80;99.90
24017;DHT22;12222;50.090;19.702;2022-09-14T06:06:54;15.40;99.90
24017;DHT22;12222;50.090;19.702;2022-09-14T06:12:36;15.90;99.90
24017;DHT22;12222;50.090;19.702;2022-09-14T06:17:58;16.20;99.90
24017;DHT22;12222;50.090;19.702;2022-09-14T06:23:20;16.20;99.90
24017;DHT22;12222;50.090;19.702;2022-09-14T06:28:42;16.30;99.90
24017;DHT22;12222;50.090;19.702;2022-09-14T06:34:04;16.50;99.90
24017;DHT22;12222;50.090;19.702;2022-09-14T06:39:27;16.90;99.90
24017;DHT22;12222;50.090;19.702;2022-09-14T06:44:49;17.00;99.90
24017;DHT22;12222;50.090;19.702;2022-09-14T06:50:12;17.20;99.90
24017;DHT22;12222;50.090;19.702;2022-09-14T06:55:35;17.10;99.90
24017;DHT22;12222;50.090;19.702;2022-09-14T07:01:03;17.30;99.90
24017;DHT22;12222;50.090;19.702;2022-09-14T07:06:29;17.40;99.90
24017;DHT22;12222;50.090;19.702;2022-09-14T07:11:53;17.60;99.90
24017;DHT22;12222;50.090;19.702;2022-09-14T07:17:17;17.90;99.90
24017;DHT22;12222;50.090;19.702;2022-09-14T07:22:42;17.90;99.90
24017;DHT22;12222;50.090;19.702;2022-09-14T07:28:10;18.00;99.90
24017;DHT22;12222;50.090;19.702;2022-09-14T07:33:33;18.20;99.90
24017;DHT22;12222;50.090;19.702;2022-09-14T07:38:57;18.40;99.90
24017;DHT22;12222;50.090;19.702;2022-09-14T07:44:21;18.70;99.90
24017;DHT22;12222;50.090;19.702;2022-09-14T07:49:44;18.70;99.90
24017;DHT22;12222;50.090;19.702;2022-09-14T07:55:07;18.60;99.90
24017;DHT22;12222;50.090;19.702;2022-09-14T08:00:32;18.90;99.90
24017;DHT22;12222;50.090;19.702;2022-09-14T08:06:00;19.00;99.90
24017;DHT22;12222;50.090;19.702;2022-09-14T08:11:29;18.90;99.90
24017;DHT22;12222;50.090;19.702;2022-09-14T08:16:53;18.90;99.90
24017;DHT22;12222;50.090;19.702;2022-09-14T08:22:16;19.30;99.90
24017;DHT22;12222;50.090;19.702;2022-09-14T08:27:40;19.30;99.90
24017;DHT22;12222;50.090;19.702;2022-09-14T08:33:04;19.50;99.90
24017;DHT22;12222;50.090;19.702;2022-09-14T08:38:27;19.80;99.90
24017;DHT22;12222;50.090;19.702;2022-09-14T08:43:51;19.80;99.90
24017;DHT22;12222;50.090;19.702;2022-09-14T08:49:41;20.00;99.90
24017;DHT22;12222;50.090;19.702;2022-09-14T08:55:32;19.90;99.90
24017;DHT22;12222;50.090;19.702;2022-09-14T09:01:22;19.90;99.90
24017;DHT22;12222;50.090;19.702;2022-09-14T09:18:00;20.60;99.90
24017;DHT22;12222;50.090;19.702;2022-09-14T09:23:28;20.80;99.90
24017;DHT22;12222;50.090;19.702;2022-09-14T09:28:54;21.50;99.90
24017;DHT22;12222;50.090;19.702;2022-09-14T09:34:26;22.30;99.90
24017;DHT22;12222;50.090;19.702;2022-09-14T09:40:16;22.00;99.90
24017;DHT22;12222;50.090;19.702;2022-09-14T09:57:02;21.80;99.90
24017;DHT22;12222;50.090;19.702;2022-09-14T10:02:30;21.60;99.90
24017;DHT22;12222;50.090;19.702;2022-09-14T10:07:59;21.20;99.90
24017;DHT22;12222;50.090;19.702;2022-09-14T10:13:33;21.20;99.90
24017;DHT22;12222;50.090;19.702;2022-09-14T10:19:00;21.80;99.90
24017;DHT22;12222;50.090;19.702;2022-09-14T10:24:25;22.80;99.90
24017;DHT22;12222;50.090;19.702;2022-09-14T10:29:51;22.90;99.90
24017;DHT22;12222;50.090;19.702;2022-09-14T10:35:16;22.50;99.90
24017;DHT22;12222;50.090;19.702;2022-09-14T10:40:43;21.50;99.90
24017;DHT22;12222;50.090;19.702;2022-09-14T10:46:12;20.90;99.90
24017;DHT22;12222;50.090;19.702;2022-09-14T10:51:53;20.60;99.90
24017;DHT22;12222;50.090;19.702;2022-09-14T10:57:35;20.50;99.90
24017;DHT22;12222;50.090;19.702;2022-09-14T11:03:26;20.20;99.90
24017;DHT22;12222;50.090;19.702;2022-09-14T11:09:01;20.20;99.90
24017;DHT22;12222;50.090;19.702;2022-09-14T11:20:34;20.10;99.90
24017;DHT22;12222;50.090;19.702;2022-09-14T11:26:15;20.10;99.90
24017;DHT22;12222;50.090;19.702;2022-09-14T11:37:40;19.90;99.90
24017;DHT22;12222;50.090;19.702;2022-09-14T11:43:15;19.80;99.90
24017;DHT22;12222;50.090;19.702;2022-09-14T11:54:39;20.00;99.90
24017;DHT22;12222;50.090;19.702;2022-09-14T12:05:52;20.10;99.90
24017;DHT22;12222;50.090;19.702;2022-09-14T12:17:01;19.30;99.90
24017;DHT22;12222;50.090;19.702;2022-09-14T12:22:44;18.90;99.90
24017;DHT22;12222;50.090;19.702;2022-09-14T12:39:38;18.50;99.90
24017;DHT22;12222;50.090;19.702;2022-09-14T12:45:46;18.20;99.90
24017;DHT22;12222;50.090;19.702;2022-09-14T12:51:26;18.10;99.90
24017;DHT22;12222;50.090;19.702;2022-09-14T13:03:12;18.10;99.90
24017;DHT22;12222;50.090;19.702;2022-09-14T13:08:43;18.00;99.90
24017;DHT22;12222;50.090;19.702;2022-09-14T13:14:10;18.00;99.90
24017;DHT22;12222;50.090;19.702;2022-09-14T13:19:33;17.90;99.90
24017;DHT22;12222;50.090;19.702;2022-09-14T13:24:55;18.00;99.90
24017;DHT22;12222;50.090;19.702;2022-09-14T13:30:22;18.10;99.90
24017;DHT22;12222;50.090;19.702;2022-09-14T13:35:53;18.10;99.90
24017;DHT22;12222;50.090;19.702;2022-09-14T13:41:18;18.10;99.90
24017;DHT22;12222;50.090;19.702;2022-09-14T13:46:43;17.80;99.90
24017;DHT22;12222;50.090;19.702;2022-09-14T14:03:31;17.10;99.90
24017;DHT22;12222;50.090;19.702;2022-09-14T14:09:05;17.10;99.90
24017;DHT22;12222;50.090;19.702;2022-09-14T14:14:28;17.10;99.90
24017;DHT22;12222;50.090;19.702;2022-09-14T14:19:58;17.10;99.90
24017;DHT22;12222;50.090;19.702;2022-09-14T14:25:33;17.30;99.90
24017;DHT22;12222;50.090;19.702;2022-09-14T14:30:59;17.50;99.90
24017;DHT22;12222;50.090;19.702;2022-09-14T14:36:29;17.50;99.90
24017;DHT22;12222;50.090;19.702;2022-09-14T14:41:52;17.40;99.90
24017;DHT22;12222;50.090;19.702;2022-09-14T14:47:15;17.40;99.90
24017;DHT22;12222;50.090;19.702;2022-09-14T14:52:38;17.30;99.90
24017;DHT22;12222;50.090;19.702;2022-09-14T14:58:03;17.30;99.90
24017;DHT22;12222;50.090;19.702;2022-09-14T15:03:26;17.30;99.90
24017;DHT22;12222;50.090;19.702;2022-09-14T15:08:54;17.10;99.90
24017;DHT22;12222;50.090;19.702;2022-09-14T15:14:19;17.00;99.90
24017;DHT22;12222;50.090;19.702;2022-09-14T15:19:48;16.90;99.90
24017;DHT22;12222;50.090;19.702;2022-09-14T15:25:11;16.80;99.90
24017;DHT22;12222;50.090;19.702;2022-09-14T15:30:34;16.80;99.90
24017;DHT22;12222;50.090;19.702;2022-09-14T15:35:57;16.80;99.90
24017;DHT22;12222;50.090;19.702;2022-09-14T15:41:20;16.80;99.90
24017;DHT22;12222;50.090;19.702;2022-09-14T15:46:43;16.80;99.90
24017;DHT22;12222;50.090;19.702;2022-09-14T15:52:07;16.80;99.90
24017;DHT22;12222;50.090;19.702;2022-09-14T15:57:30;16.80;99.90
24017;DHT22;12222;50.090;19.702;2022-09-14T16:02:53;16.80;99.90
24017;DHT22;12222;50.090;19.702;2022-09-14T16:08:16;16.70;99.90
24017;DHT22;12222;50.090;19.702;2022-09-14T16:13:39;16.90;99.90
24017;DHT22;12222;50.090;19.702;2022-09-14T16:19:09;16.90;99.90
24017;DHT22;12222;50.090;19.702;2022-09-14T16:24:33;16.70;99.90
24017;DHT22;12222;50.090;19.702;2022-09-14T16:29:55;16.70;99.90
24017;DHT22;12222;50.090;19.702;2022-09-14T16:35:18;16.50;99.90
24017;DHT22;12222;50.090;19.702;2022-09-14T16:40:43;16.50;99.90
24017;DHT22;12222;50.090;19.702;2022-09-14T16:46:10;16.40;99.90
24017;DHT22;12222;50.090;19.702;2022-09-14T16:51:34;16.40;99.90
24017;DHT22;12222;50.090;19.702;2022-09-14T16:56:57;16.70;99.90
24017;DHT22;12222;50.090;19.702;2022-09-14T17:02:21;16.60;99.90
24017;DHT22;12222;50.090;19.702;2022-09-14T17:07:44;16.60;99.90
24017;DHT22;12222;50.090;19.702;2022-09-14T17:13:07;16.50;99.90
24017;DHT22;12222;50.090;19.702;2022-09-14T17:18:30;16.40;99.90
24017;DHT22;12222;50.090;19.702;2022-09-14T17:23:52;16.40;99.90
24017;DHT22;12222;50.090;19.702;2022-09-14T17:29:15;16.40;99.90
24017;DHT22;12222;50.090;19.702;2022-09-14T17:34:38;16.30;99.90
24017;DHT22;12222;50.090;19.702;2022-09-14T17:40:01;16.20;99.90
24017;DHT22;12222;50.090;19.702;2022-09-14T17:45:26;16.20;99.90
24017;DHT22;12222;50.090;19.702;2022-09-14T17:50:49;16.20;99.90
24017;DHT22;12222;50.090;19.702;2022-09-14T17:56:12;16.30;99.90
24017;DHT22;12222;50.090;19.702;2022-09-14T18:01:35;16.40;99.90
24017;DHT22;12222;50.090;19.702;2022-09-14T18:06:58;16.50;99.90
24017;DHT22;12222;50.090;19.702;2022-09-14T18:12:21;16.50;99.90
24017;DHT22;12222;50.090;19.702;2022-09-14T18:17:44;16.50;99.90
24017;DHT22;12222;50.090;19.702;2022-09-14T18:23:07;16.50;99.90
24017;DHT22;12222;50.090;19.702;2022-09-14T18:28:30;16.40;99.90
24017;DHT22;12222;50.090;19.702;2022-09-14T18:33:55;16.30;99.90
24017;DHT22;12222;50.090;19.702;2022-09-14T18:39:20;16.20;99.90
24017;DHT22;12222;50.090;19.702;2022-09-14T18:44:43;16.10;99.90
24017;DHT22;12222;50.090;19.702;2022-09-14T18:50:06;16.10;99.90
24017;DHT22;12222;50.090;19.702;2022-09-14T18:55:30;16.10;99.90
24017;DHT22;12222;50.090;19.702;2022-09-14T19:00:53;16.10;99.90
24017;DHT22;12222;50.090;19.702;2022-09-14T19:06:17;16.10;99.90
24017;DHT22;12222;50.090;19.702;2022-09-14T19:11:40;16.10;99.90
24017;DHT22;12222;50.090;19.702;2022-09-14T19:17:03;16.10;99.90
24017;DHT22;12222;50.090;19.702;2022-09-14T19:22:27;16.10;99.90
24017;DHT22;12222;50.090;19.702;2022-09-14T19:27:50;16.10;99.90
24017;DHT22;12222;50.090;19.702;2022-09-14T19:33:13;16.00;99.90
24017;DHT22;12222;50.090;19.702;2022-09-14T19:38:36;16.00;99.90
24017;DHT22;12222;50.090;19.702;2022-09-14T19:44:00;16.00;99.90
24017;DHT22;12222;50.090;19.702;2022-09-14T19:49:24;16.10;99.90
24017;DHT22;12222;50.090;19.702;2022-09-14T19:54:46;16.10;99.90
24017;DHT22;12222;50.090;19.702;2022-09-14T20:00:10;16.20;99.90
24017;DHT22;12222;50.090;19.702;2022-09-14T20:05:39;16.00;99.90
24017;DHT22;12222;50.090;19.702;2022-09-14T20:11:06;16.00;99.90
24017;DHT22;12222;50.090;19.702;2022-09-14T20:16:33;15.80;99.90
24017;DHT22;12222;50.090;19.702;2022-09-14T20:21:56;15.70;99.90
24017;DHT22;12222;50.090;19.702;2022-09-14T20:27:18;15.80;99.90
24017;DHT22;12222;50.090;19.702;2022-09-14T20:32:41;15.60;99.90
24017;DHT22;12222;50.090;19.702;2022-09-14T20:38:04;15.60;99.90
24017;DHT22;12222;50.090;19.702;2022-09-14T20:43:29;15.90;99.90
24017;DHT22;12222;50.090;19.702;2022-09-14T20:48:53;16.00;99.90
24017;DHT22;12222;50.090;19.702;2022-09-14T20:54:16;16.00;99.90
24017;DHT22;12222;50.090;19.702;2022-09-14T20:59:39;16.00;99.90
24017;DHT22;12222;50.090;19.702;2022-09-14T21:05:03;16.00;99.90
24017;DHT22;12222;50.090;19.702;2022-09-14T21:10:26;16.00;99.90
24017;DHT22;12222;50.090;19.702;2022-09-14T21:15:50;16.00;99.90
24017;DHT22;12222;50.090;19.702;2022-09-14T21:21:15;16.00;99.90
24017;DHT22;12222;50.090;19.702;2022-09-14T21:26:39;16.00;99.90
24017;DHT22;12222;50.090;19.702;2022-09-14T21:32:04;16.10;99.90
24017;DHT22;12222;50.090;19.702;2022-09-14T21:37:30;16.10;99.90
24017;DHT22;12222;50.090;19.702;2022-09-14T21:42:52;16.00;99.90
24017;DHT22;12222;50.090;19.702;2022-09-14T21:48:15;15.90;99.90
24017;DHT22;12222;50.090;19.702;2022-09-14T21:53:38;16.10;99.90
24017;DHT22;12222;50.090;19.702;2022-09-14T21:59:02;15.80;99.90
24017;DHT22;12222;50.090;19.702;2022-09-14T22:04:25;15.70;99.90
24017;DHT22;12222;50.090;19.702;2022-09-14T22:09:47;15.60;99.90
24017;DHT22;12222;50.090;19.702;2022-09-14T22:15:10;15.60;99.90
24017;DHT22;12222;50.090;19.702;2022-09-14T22:20:32;15.60;99.90
24017;DHT22;12222;50.090;19.702;2022-09-14T22:25:54;15.60;99.90
24017;DHT22;12222;50.090;19.702;2022-09-14T22:37:48;15.50;99.90
24017;DHT22;12222;50.090;19.702;2022-09-14T22:43:10;15.60;99.90
24017;DHT22;12222;50.090;19.702;2022-09-14T22:48:33;15.70;99.90
24017;DHT22;12222;50.090;19.702;2022-09-14T22:53:55;15.60;99.90
24017;DHT22;12222;50.090;19.702;2022-09-14T22:59:17;15.50;99.90
24017;DHT22;12222;50.090;19.702;2022-09-14T23:04:39;15.50;99.90
24017;DHT22;12222;50.090;19.702;2022-09-14T23:10:02;15.40;99.90
24017;DHT22;12222;50.090;19.702;2022-09-14T23:15:24;15.40;99.90
24017;DHT22;12222;50.090;19.702;2022-09-14T23:20:46;15.60;99.90
24017;DHT22;12222;50.090;19.702;2022-09-14T23:26:10;15.60;99.90
24017;DHT22;12222;50.090;19.702;2022-09-14T23:31:32;15.70;99.90
24017;DHT22;12222;50.090;19.702;2022-09-14T23:36:54;15.60;99.90
24017;DHT22;12222;50.090;19.702;2022-09-14T23:42:18;15.50;99.90
24017;DHT22;12222;50.090;19.702;2022-09-14T23:47:40;15.60;99.90
24017;DHT22;12222;50.090;19.702;2022-09-14T23:53:02;15.50;99.90
24017;DHT22;12222;50.090;19.702;2022-09-14T23:58:24;15.50;99.90
